Thunder radar more information blitzortung!


Löydät sääaseman tiedot myös:

European Weather Network

Finland Weather Exchange

Weather Underground

AWEKAS



Weather Underground säähistoriasivu

Päivittäin yhteenveto Syyskuu 7, 2017 Yksiköt:  Englantilaiset    Metriset   Molemmat
« Edellinen Päivä
Seuraava Päivä »
Päivittäin Viikoittain Kuukausittain Vuosittain Mukautettu
  Korkea: Matala: Keskiarvo:
Lämpötila: TemperatureC °F 4.0 °F 8.8 °F
Kastepiste: DewpointC °F 3.3 °F 7.1 °F
Kosteus: Humidity % 68 % 89 %
Tuulen nopeus: WindSpeedKMH mph 0.0 mph 0 mph
Tuulenpuuska: WindSpeedGustKMH mph - -
Tuuli:- - North
Ilmanpaine: PressurehPa in 1004.3 in -
Sade: 0.0 in    
Historical Graphs
 
 
Taulukkotiedot Syyskuu 7, 2017
Aika Lämpötila Kastepiste Ilmanpaine Tuuli Tuulen nopeus Tuulenpuuska Kosteus Sademäärä (tunneittain)
TemperatureC °F DewpointC °F PressurehPa in Calm     Humidity % HourlyPrecipMM in
00:00 5.1 °F 4.2 °F 1014.8 in Calm     94 % 0.0 in
00:15 5.1 °F 4.2 °F 1014.8 in Calm     94 % 0.0 in
00:30 5.2 °F 4.5 °F 1014.8 in Calm     95 % 0.0 in
00:45 5.4 °F 4.7 °F 1014.4 in Calm     95 % 0.0 in
01:00 5.4 °F 4.7 °F 1014.4 in Calm     95 % 0.0 in
01:15 5.4 °F 4.5 °F 1014.4 in Calm     94 % 0.0 in
01:30 5.4 °F 4.6 °F 1014.1 in Calm     94 % 0.0 in
01:45 5.4 °F 4.7 °F 1014.1 in Calm     95 % 0.0 in
02:00 5.6 °F 4.8 °F 1014.1 in Calm     95 % 0.0 in
02:15 5.7 °F 4.9 °F 1014.1 in Calm     95 % 0.0 in
02:30 5.7 °F 5.0 °F 1014.1 in Calm     95 % 0.0 in
02:45 5.8 °F 5.1 °F 1013.8 in Calm     95 % 0.0 in
03:00 5.9 °F 5.2 °F 1013.8 in Calm     95 % 0.0 in
03:15 6.1 °F 5.3 °F 1013.4 in Calm     95 % 0.0 in
03:30 6.2 °F 5.4 °F 1013.4 in Calm     95 % 0.0 in
03:45 6.2 °F 5.4 °F 1013.1 in Calm     95 % 0.0 in
04:00 6.2 °F 5.5 °F 1013.1 in Calm     95 % 0.0 in
04:15 6.3 °F 5.5 °F 1013.1 in Calm     95 % 0.0 in
04:30 6.2 °F 5.4 °F 1012.8 in Calm     95 % 0.0 in
04:45 5.8 °F 4.9 °F 1012.8 in Calm     94 % 0.0 in
05:00 5.4 °F 4.6 °F 1012.8 in Calm     94 % 0.0 in
05:15 5.0 °F 4.1 °F 1012.8 in Calm     94 % 0.0 in
05:30 4.4 °F 3.5 °F 1012.4 in Calm   1.6 mph 94 % 0.0 in
05:45 4.1 °F 3.4 °F 1012.4 in Calm     95 % 0.0 in
06:00 4.0 °F 3.3 °F 1012.4 in Calm     95 % 0.0 in
06:30 4.0 °F 3.4 °F 1012.1 in Calm     96 % 0.0 in
06:45 4.2 °F 3.6 °F 1012.1 in Calm     96 % 0.0 in
07:00 4.3 °F 3.7 °F 1012.1 in Calm     96 % 0.0 in
07:15 4.4 °F 3.9 °F 1012.1 in Calm     96 % 0.0 in
07:30 4.7 °F 4.1 °F 1011.7 in Calm     96 % 0.0 in
07:45 5.1 °F 4.6 °F 1011.7 in Calm     97 % 0.0 in
08:00 5.4 °F 5.0 °F 1011.7 in Calm     97 % 0.0 in
08:15 5.9 °F 5.4 °F 1011.4 in Calm     97 % 0.0 in
08:30 6.3 °F 5.9 °F 1011.4 in Calm     97 % 0.0 in
08:45 6.8 °F 6.4 °F 1011.4 in Calm     97 % 0.0 in
09:00 7.2 °F 6.8 °F 1011.1 in Calm     97 % 0.0 in
09:15 7.6 °F 7.2 °F 1011.1 in Calm     97 % 0.0 in
09:30 8.0 °F 7.6 °F 1011.1 in Calm     97 % 0.0 in
09:45 8.5 °F 7.9 °F 1010.7 in Calm     96 % 0.0 in
10:00 9.1 °F 8.3 °F 1010.7 in Calm     95 % 0.0 in
10:15 9.6 °F 8.7 °F 1010.4 in Calm     94 % 0.0 in
10:30 9.9 °F 8.9 °F 1010.4 in Calm   1.6 mph 93 % 0.0 in
11:00 10.7 °F 8.8 °F 1010.0 in Calm   1.6 mph 88 % 0.0 in
11:15 11.1 °F 8.9 °F 1010.0 in Calm   1.6 mph 85 % 0.0 in
11:30 11.7 °F 9.1 °F 1009.7 in Calm   1.6 mph 84 % 0.0 in
11:45 12.6 °F 9.6 °F 1009.7 in Calm   6.4 mph 82 % 0.0 in
12:00 12.8 °F 9.7 °F 1009.7 in Calm   1.6 mph 81 % 0.0 in
12:15 13.0 °F 9.1 °F 1009.4 in Calm   3.2 mph 77 % 0.0 in
12:30 13.2 °F 8.9 °F 1009.4 in Calm   1.6 mph 75 % 0.0 in
12:45 13.6 °F 8.8 °F 1009.0 in Calm   1.6 mph 73 % 0.0 in
13:00 13.9 °F 8.9 °F 1009.0 in Calm   1.6 mph 72 % 0.0 in
13:15 13.8 °F 8.8 °F 1008.7 in Calm   3.2 mph 72 % 0.0 in
13:30 14.2 °F 9.0 °F 1008.7 in Calm   3.2 mph 71 % 0.0 in
13:45 14.6 °F 9.0 °F 1008.4 in Calm   3.2 mph 69 % 0.0 in
14:00 14.8 °F 9.4 °F 1008.0 in Calm   3.2 mph 70 % 0.0 in
14:15 14.7 °F 8.8 °F 1008.0 in Calm   1.6 mph 68 % 0.0 in
14:30 14.4 °F 9.0 °F 1008.0 in Calm   6.4 mph 70 % 0.0 in
14:45 14.1 °F 8.9 °F 1008.0 in Calm   6.4 mph 71 % 0.0 in
15:00 13.9 °F 8.9 °F 1007.7 in Calm   1.6 mph 72 % 0.0 in
15:15 14.1 °F 9.3 °F 1007.7 in Calm   1.6 mph 73 % 0.0 in
15:30 14.1 °F 8.9 °F 1007.3 in Calm     71 % 0.0 in
15:45 13.9 °F 9.0 °F 1007.3 in Calm   3.2 mph 72 % 0.0 in
16:00 13.8 °F 8.8 °F 1007.3 in Calm   9.7 mph 72 % 0.0 in
16:15 13.2 °F 8.8 °F 1007.3 in Calm   3.2 mph 75 % 0.0 in
16:30 12.6 °F 9.2 °F 1007.3 in Calm   1.6 mph 80 % 0.0 in
16:45 11.9 °F 9.3 °F 1007.3 in Calm   6.4 mph 84 % 0.0 in
17:00 11.3 °F 9.4 °F 1007.3 in Calm   4.8 mph 88 % 0.0 in
17:15 10.8 °F 9.2 °F 1007.3 in Calm   1.6 mph 90 % 0.0 in
17:30 10.6 °F 9.3 °F 1007.3 in Calm   3.2 mph 92 % 0.0 in
17:45 10.3 °F 9.1 °F 1007.3 in Calm     92 % 0.0 in
18:00 10.1 °F 9.0 °F 1007.3 in Calm   1.6 mph 93 % 0.0 in
18:15 10.0 °F 8.9 °F 1007.3 in Calm     93 % 0.0 in
18:30 9.9 °F 9.0 °F 1007.0 in Calm     94 % 0.0 in
18:45 9.8 °F 8.9 °F 1007.0 in Calm     94 % 0.0 in
19:00 9.7 °F 9.0 °F 1007.0 in Calm     95 % 0.0 in
19:15 9.7 °F 9.0 °F 1006.7 in Calm     95 % 0.0 in
19:30 9.7 °F 8.9 °F 1006.7 in Calm     95 % 0.0 in
19:45 9.6 °F 8.8 °F 1006.7 in Calm     95 % 0.0 in
20:00 9.5 °F 8.7 °F 1006.3 in Calm     95 % 0.0 in
20:15 9.4 °F 8.7 °F 1006.3 in Calm     95 % 0.0 in
20:30 9.3 °F 8.6 °F 1006.0 in Calm     95 % 0.0 in
20:45 9.3 °F 8.5 °F 1006.0 in Calm   1.6 mph 95 % 0.0 in
21:00 9.2 °F 8.4 °F 1006.0 in Calm   1.6 mph 95 % 0.0 in
21:15 9.2 °F 8.6 °F 1005.6 in Calm     96 % 0.0 in
21:30 9.2 °F 8.6 °F 1005.6 in Calm     96 % 0.0 in
21:45 9.1 °F 8.5 °F 1005.3 in Calm     96 % 0.0 in
22:00 9.1 °F 8.3 °F 1005.3 in Calm     95 % 0.0 in
22:15 9.1 °F 8.5 °F 1005.3 in Calm   1.6 mph 96 % 0.0 in
22:30 9.1 °F 8.5 °F 1005.0 in Calm   1.6 mph 96 % 0.0 in
22:45 8.9 °F 8.2 °F 1005.0 in Calm   1.6 mph 95 % 0.0 in
23:00 8.8 °F 8.0 °F 1004.6 in Calm   3.2 mph 95 % 0.0 in
23:15 8.7 °F 8.0 °F 1004.6 in Calm   1.6 mph 95 % 0.0 in
23:30 8.6 °F 7.9 °F 1004.3 in Calm     95 % 0.0 in
23:45 8.6 °F 7.8 °F 1004.3 in Calm   1.6 mph 95 % 0.0 in
Esan sääasema
Terveisin Weather Underground - 2.75 mb

Alkuperäinen skripti  Jim McMurry - jmcmurry@mwt.net Sovitettu myös templatelle  Wim van der Kuil - Leuven-Template.eu

Laitteet joita käytämme:

Sääasema
Davis VP2

Sääasemaohjelma
Cumulus

Sääaseman tietokone
Asus EeePC

Palveluntarjoaja
Suncomet

Davis VP2

Cumulus

Asus EeePC

Suncomet